sensor_id;sensor_type;location;lat;lon;timestamp;temperature;humidity
70676;DHT22;59069;52.242;20.900;2023-10-19T00:01:57;4.81;78.03
70676;DHT22;59069;52.242;20.900;2023-10-19T00:04:25;4.75;78.25
70676;DHT22;59069;52.242;20.900;2023-10-19T00:06:50;4.70;78.43
70676;DHT22;59069;52.242;20.900;2023-10-19T00:09:15;4.67;78.54
70676;DHT22;59069;52.242;20.900;2023-10-19T00:11:44;4.69;78.66
70676;DHT22;59069;52.242;20.900;2023-10-19T00:14:11;4.69;78.74
70676;DHT22;59069;52.242;20.900;2023-10-19T00:16:44;4.67;78.95
70676;DHT22;59069;52.242;20.900;2023-10-19T00:19:19;4.67;79.10
70676;DHT22;59069;52.242;20.900;2023-10-19T00:21:45;4.65;79.15
70676;DHT22;59069;52.242;20.900;2023-10-19T00:24:20;4.66;79.05
70676;DHT22;59069;52.242;20.900;2023-10-19T00:26:48;4.63;78.98
70676;DHT22;59069;52.242;20.900;2023-10-19T00:29:14;4.60;79.20
70676;DHT22;59069;52.242;20.900;2023-10-19T00:31:56;4.62;79.63
70676;DHT22;59069;52.242;20.900;2023-10-19T00:34:21;4.63;79.66
70676;DHT22;59069;52.242;20.900;2023-10-19T00:36:47;4.66;79.43
70676;DHT22;59069;52.242;20.900;2023-10-19T00:39:13;4.67;79.22
70676;DHT22;59069;52.242;20.900;2023-10-19T00:41:46;4.67;79.18
70676;DHT22;59069;52.242;20.900;2023-10-19T00:44:13;4.67;79.26
70676;DHT22;59069;52.242;20.900;2023-10-19T00:46:43;4.65;79.26
70676;DHT22;59069;52.242;20.900;2023-10-19T00:49:12;4.60;79.27
70676;DHT22;59069;52.242;20.900;2023-10-19T00:51:42;4.60;79.30
70676;DHT22;59069;52.242;20.900;2023-10-19T00:54:23;4.59;79.24
70676;DHT22;59069;52.242;20.900;2023-10-19T00:56:57;4.56;79.35
70676;DHT22;59069;52.242;20.900;2023-10-19T00:59:25;4.56;79.33
70676;DHT22;59069;52.242;20.900;2023-10-19T01:02:01;4.53;79.34
70676;DHT22;59069;52.242;20.900;2023-10-19T01:04:52;4.52;79.31
70676;DHT22;59069;52.242;20.900;2023-10-19T01:07:37;4.53;79.38
70676;DHT22;59069;52.242;20.900;2023-10-19T01:10:04;4.53;79.27
70676;DHT22;59069;52.242;20.900;2023-10-19T01:12:31;4.50;79.21
70676;DHT22;59069;52.242;20.900;2023-10-19T01:17:36;4.41;79.26
70676;DHT22;59069;52.242;20.900;2023-10-19T01:20:12;4.41;79.35
70676;DHT22;59069;52.242;20.900;2023-10-19T01:22:55;4.42;79.36
70676;DHT22;59069;52.242;20.900;2023-10-19T01:28:09;4.42;79.43
70676;DHT22;59069;52.242;20.900;2023-10-19T01:30:36;4.45;79.37
70676;DHT22;59069;52.242;20.900;2023-10-19T01:33:03;4.45;79.23
70676;DHT22;59069;52.242;20.900;2023-10-19T01:35:29;4.45;79.15
70676;DHT22;59069;52.242;20.900;2023-10-19T01:38:15;4.44;79.20
70676;DHT22;59069;52.242;20.900;2023-10-19T01:40:41;4.45;79.28
70676;DHT22;59069;52.242;20.900;2023-10-19T01:43:13;4.41;79.28
70676;DHT22;59069;52.242;20.900;2023-10-19T01:45:52;4.42;79.29
70676;DHT22;59069;52.242;20.900;2023-10-19T01:48:20;4.42;79.17
70676;DHT22;59069;52.242;20.900;2023-10-19T01:50:48;4.45;79.12
70676;DHT22;59069;52.242;20.900;2023-10-19T01:53:16;4.41;79.17
70676;DHT22;59069;52.242;20.900;2023-10-19T01:55:44;4.39;79.27
70676;DHT22;59069;52.242;20.900;2023-10-19T01:58:10;4.35;79.28
70676;DHT22;59069;52.242;20.900;2023-10-19T02:00:36;4.35;79.32
70676;DHT22;59069;52.242;20.900;2023-10-19T02:03:11;4.32;79.35
70676;DHT22;59069;52.242;20.900;2023-10-19T02:05:36;4.32;79.43
70676;DHT22;59069;52.242;20.900;2023-10-19T02:08:06;4.31;79.51
70676;DHT22;59069;52.242;20.900;2023-10-19T02:10:35;4.31;79.50
70676;DHT22;59069;52.242;20.900;2023-10-19T02:13:08;4.34;79.52
70676;DHT22;59069;52.242;20.900;2023-10-19T02:15:34;4.32;79.50
70676;DHT22;59069;52.242;20.900;2023-10-19T02:18:03;4.32;79.50
70676;DHT22;59069;52.242;20.900;2023-10-19T02:20:29;4.32;79.58
70676;DHT22;59069;52.242;20.900;2023-10-19T02:22:56;4.32;79.65
70676;DHT22;59069;52.242;20.900;2023-10-19T02:25:25;4.35;79.57
70676;DHT22;59069;52.242;20.900;2023-10-19T02:27:53;4.31;79.70
70676;DHT22;59069;52.242;20.900;2023-10-19T02:30:19;4.29;79.75
70676;DHT22;59069;52.242;20.900;2023-10-19T02:32:44;4.31;79.59
70676;DHT22;59069;52.242;20.900;2023-10-19T02:35:09;4.28;79.68
70676;DHT22;59069;52.242;20.900;2023-10-19T02:37:35;4.29;79.83
70676;DHT22;59069;52.242;20.900;2023-10-19T02:40:00;4.31;79.78
70676;DHT22;59069;52.242;20.900;2023-10-19T02:42:26;4.32;79.61
70676;DHT22;59069;52.242;20.900;2023-10-19T02:44:51;4.32;79.60
70676;DHT22;59069;52.242;20.900;2023-10-19T02:47:16;4.34;79.58
70676;DHT22;59069;52.242;20.900;2023-10-19T02:49:42;4.34;79.56
70676;DHT22;59069;52.242;20.900;2023-10-19T02:52:15;4.34;79.59
70676;DHT22;59069;52.242;20.900;2023-10-19T02:54:41;4.35;79.55
70676;DHT22;59069;52.242;20.900;2023-10-19T02:57:06;4.35;79.54
70676;DHT22;59069;52.242;20.900;2023-10-19T02:59:32;4.36;79.72
70676;DHT22;59069;52.242;20.900;2023-10-19T03:01:59;4.36;79.66
70676;DHT22;59069;52.242;20.900;2023-10-19T03:04:38;4.38;79.80
70676;DHT22;59069;52.242;20.900;2023-10-19T03:07:04;4.35;79.71
70676;DHT22;59069;52.242;20.900;2023-10-19T03:09:30;4.35;79.77
70676;DHT22;59069;52.242;20.900;2023-10-19T03:11:57;4.39;79.69
70676;DHT22;59069;52.242;20.900;2023-10-19T03:14:28;4.38;79.69
70676;DHT22;59069;52.242;20.900;2023-10-19T03:16:54;4.39;79.74
70676;DHT22;59069;52.242;20.900;2023-10-19T03:19:23;4.39;79.68
70676;DHT22;59069;52.242;20.900;2023-10-19T03:21:50;4.39;79.70
70676;DHT22;59069;52.242;20.900;2023-10-19T03:24:16;4.41;79.63
70676;DHT22;59069;52.242;20.900;2023-10-19T03:26:51;4.38;79.58
70676;DHT22;59069;52.242;20.900;2023-10-19T03:29:19;4.42;79.49
70676;DHT22;59069;52.242;20.900;2023-10-19T03:31:47;4.42;79.49
70676;DHT22;59069;52.242;20.900;2023-10-19T03:34:13;4.44;79.46
70676;DHT22;59069;52.242;20.900;2023-10-19T03:36:39;4.42;79.44
70676;DHT22;59069;52.242;20.900;2023-10-19T03:39:05;4.44;79.48
70676;DHT22;59069;52.242;20.900;2023-10-19T03:41:41;4.44;79.47
70676;DHT22;59069;52.242;20.900;2023-10-19T03:44:12;4.46;79.59
70676;DHT22;59069;52.242;20.900;2023-10-19T03:46:49;4.50;79.51
70676;DHT22;59069;52.242;20.900;2023-10-19T03:49:29;4.52;79.44
70676;DHT22;59069;52.242;20.900;2023-10-19T03:52:01;4.57;79.35
70676;DHT22;59069;52.242;20.900;2023-10-19T03:54:33;4.56;79.42
70676;DHT22;59069;52.242;20.900;2023-10-19T03:57:03;4.57;79.36
70676;DHT22;59069;52.242;20.900;2023-10-19T03:59:31;4.62;79.31
70676;DHT22;59069;52.242;20.900;2023-10-19T04:01:59;4.65;79.17
70676;DHT22;59069;52.242;20.900;2023-10-19T04:04:26;4.63;79.20
70676;DHT22;59069;52.242;20.900;2023-10-19T04:06:52;4.67;79.17
70676;DHT22;59069;52.242;20.900;2023-10-19T04:09:26;4.70;79.19
70676;DHT22;59069;52.242;20.900;2023-10-19T04:11:57;4.70;79.04
70676;DHT22;59069;52.242;20.900;2023-10-19T04:14:23;4.75;79.00
70676;DHT22;59069;52.242;20.900;2023-10-19T04:16:49;4.77;78.79
70676;DHT22;59069;52.242;20.900;2023-10-19T04:19:14;4.79;78.71
70676;DHT22;59069;52.242;20.900;2023-10-19T04:21:41;4.80;78.59
70676;DHT22;59069;52.242;20.900;2023-10-19T04:24:12;4.80;78.52
70676;DHT22;59069;52.242;20.900;2023-10-19T04:26:38;4.81;78.42
70676;DHT22;59069;52.242;20.900;2023-10-19T04:29:04;4.83;78.31
70676;DHT22;59069;52.242;20.900;2023-10-19T04:31:39;4.84;78.24
70676;DHT22;59069;52.242;20.900;2023-10-19T04:34:20;4.84;78.19
70676;DHT22;59069;52.242;20.900;2023-10-19T04:36:50;4.86;78.20
70676;DHT22;59069;52.242;20.900;2023-10-19T04:39:16;4.89;78.19
70676;DHT22;59069;52.242;20.900;2023-10-19T04:41:45;4.89;78.08
70676;DHT22;59069;52.242;20.900;2023-10-19T04:44:11;4.91;78.05
70676;DHT22;59069;52.242;20.900;2023-10-19T04:46:36;4.93;77.88
70676;DHT22;59069;52.242;20.900;2023-10-19T04:49:02;4.93;77.80
70676;DHT22;59069;52.242;20.900;2023-10-19T04:51:31;4.94;77.73
70676;DHT22;59069;52.242;20.900;2023-10-19T04:53:56;4.94;77.69
70676;DHT22;59069;52.242;20.900;2023-10-19T04:56:21;4.97;77.63
70676;DHT22;59069;52.242;20.900;2023-10-19T04:58:47;4.93;77.56
70676;DHT22;59069;52.242;20.900;2023-10-19T05:01:13;4.97;77.56
70676;DHT22;59069;52.242;20.900;2023-10-19T05:03:41;4.96;77.60
70676;DHT22;59069;52.242;20.900;2023-10-19T05:06:06;4.97;77.65
70676;DHT22;59069;52.242;20.900;2023-10-19T05:08:32;4.96;77.82
70676;DHT22;59069;52.242;20.900;2023-10-19T05:10:58;4.96;78.04
70676;DHT22;59069;52.242;20.900;2023-10-19T05:13:27;4.98;77.85
70676;DHT22;59069;52.242;20.900;2023-10-19T05:15:53;5.01;77.77
70676;DHT22;59069;52.242;20.900;2023-10-19T05:18:20;5.04;77.79
70676;DHT22;59069;52.242;20.900;2023-10-19T05:20:46;5.06;77.73
70676;DHT22;59069;52.242;20.900;2023-10-19T05:23:11;5.08;77.69
70676;DHT22;59069;52.242;20.900;2023-10-19T05:25:38;5.11;77.67
70676;DHT22;59069;52.242;20.900;2023-10-19T05:28:05;5.11;77.64
70676;DHT22;59069;52.242;20.900;2023-10-19T05:30:31;5.14;77.79
70676;DHT22;59069;52.242;20.900;2023-10-19T05:32:57;5.18;77.64
70676;DHT22;59069;52.242;20.900;2023-10-19T05:35:25;5.17;77.56
70676;DHT22;59069;52.242;20.900;2023-10-19T05:37:54;5.21;77.54
70676;DHT22;59069;52.242;20.900;2023-10-19T05:40:24;5.23;77.54
70676;DHT22;59069;52.242;20.900;2023-10-19T05:42:54;5.24;77.50
70676;DHT22;59069;52.242;20.900;2023-10-19T05:45:20;5.30;77.35
70676;DHT22;59069;52.242;20.900;2023-10-19T05:47:45;5.30;77.22
70676;DHT22;59069;52.242;20.900;2023-10-19T05:50:11;5.32;77.14
70676;DHT22;59069;52.242;20.900;2023-10-19T05:52:43;5.37;77.00
70676;DHT22;59069;52.242;20.900;2023-10-19T05:55:11;5.37;76.87
70676;DHT22;59069;52.242;20.900;2023-10-19T05:57:37;5.41;76.83
70676;DHT22;59069;52.242;20.900;2023-10-19T06:00:08;5.45;76.67
70676;DHT22;59069;52.242;20.900;2023-10-19T06:02:37;5.45;76.51
70676;DHT22;59069;52.242;20.900;2023-10-19T06:05:03;5.52;76.51
70676;DHT22;59069;52.242;20.900;2023-10-19T06:07:30;5.54;76.40
70676;DHT22;59069;52.242;20.900;2023-10-19T06:09:55;5.61;76.40
70676;DHT22;59069;52.242;20.900;2023-10-19T06:12:20;5.68;76.36
70676;DHT22;59069;52.242;20.900;2023-10-19T06:14:46;5.72;76.30
70676;DHT22;59069;52.242;20.900;2023-10-19T06:17:11;5.79;76.13
70676;DHT22;59069;52.242;20.900;2023-10-19T06:19:38;5.86;76.03
70676;DHT22;59069;52.242;20.900;2023-10-19T06:22:03;5.98;75.93
70676;DHT22;59069;52.242;20.900;2023-10-19T06:24:29;6.06;75.83
70676;DHT22;59069;52.242;20.900;2023-10-19T06:26:54;6.16;75.49
70676;DHT22;59069;52.242;20.900;2023-10-19T06:29:20;6.24;75.15
70676;DHT22;59069;52.242;20.900;2023-10-19T06:31:45;6.34;74.93
70676;DHT22;59069;52.242;20.900;2023-10-19T06:34:11;6.45;74.56
70676;DHT22;59069;52.242;20.900;2023-10-19T06:36:37;6.51;73.76
70676;DHT22;59069;52.242;20.900;2023-10-19T06:39:03;6.52;73.49
70676;DHT22;59069;52.242;20.900;2023-10-19T06:41:31;6.55;73.11
70676;DHT22;59069;52.242;20.900;2023-10-19T06:43:57;6.55;72.84
70676;DHT22;59069;52.242;20.900;2023-10-19T06:46:23;6.57;72.85
70676;DHT22;59069;52.242;20.900;2023-10-19T06:48:49;6.58;72.59
70676;DHT22;59069;52.242;20.900;2023-10-19T06:51:16;6.63;72.55
70676;DHT22;59069;52.242;20.900;2023-10-19T06:53:41;6.67;72.62
70676;DHT22;59069;52.242;20.900;2023-10-19T06:56:07;6.72;72.57
70676;DHT22;59069;52.242;20.900;2023-10-19T06:58:33;6.78;72.38
70676;DHT22;59069;52.242;20.900;2023-10-19T07:00:58;6.91;72.49
70676;DHT22;59069;52.242;20.900;2023-10-19T07:03:30;6.96;72.41
70676;DHT22;59069;52.242;20.900;2023-10-19T07:05:56;7.06;72.05
70676;DHT22;59069;52.242;20.900;2023-10-19T07:08:21;7.16;71.82
70676;DHT22;59069;52.242;20.900;2023-10-19T07:10:47;7.25;71.72
70676;DHT22;59069;52.242;20.900;2023-10-19T07:13:14;7.32;71.45
70676;DHT22;59069;52.242;20.900;2023-10-19T07:15:41;7.39;71.44
70676;DHT22;59069;52.242;20.900;2023-10-19T07:18:06;7.49;71.25
70676;DHT22;59069;52.242;20.900;2023-10-19T07:20:32;7.57;70.96
70676;DHT22;59069;52.242;20.900;2023-10-19T07:22:59;7.71;70.97
70676;DHT22;59069;52.242;20.900;2023-10-19T07:25:35;7.87;70.84
70676;DHT22;59069;52.242;20.900;2023-10-19T07:28:14;7.95;70.76
70676;DHT22;59069;52.242;20.900;2023-10-19T07:30:40;8.07;70.62
70676;DHT22;59069;52.242;20.900;2023-10-19T07:33:09;8.15;70.42
70676;DHT22;59069;52.242;20.900;2023-10-19T07:35:36;8.25;69.99
70676;DHT22;59069;52.242;20.900;2023-10-19T07:38:07;8.32;70.01
70676;DHT22;59069;52.242;20.900;2023-10-19T07:40:34;8.45;69.78
70676;DHT22;59069;52.242;20.900;2023-10-19T07:43:00;8.56;69.65
70676;DHT22;59069;52.242;20.900;2023-10-19T07:45:25;8.72;69.06
70676;DHT22;59069;52.242;20.900;2023-10-19T07:47:50;8.80;68.41
70676;DHT22;59069;52.242;20.900;2023-10-19T07:50:16;8.84;67.73
70676;DHT22;59069;52.242;20.900;2023-10-19T07:52:50;8.86;67.37
70676;DHT22;59069;52.242;20.900;2023-10-19T07:55:17;8.86;66.91
70676;DHT22;59069;52.242;20.900;2023-10-19T07:57:43;8.88;66.80
70676;DHT22;59069;52.242;20.900;2023-10-19T08:00:10;8.91;66.38
70676;DHT22;59069;52.242;20.900;2023-10-19T08:02:36;8.99;66.39
70676;DHT22;59069;52.242;20.900;2023-10-19T08:05:04;9.04;66.49
70676;DHT22;59069;52.242;20.900;2023-10-19T08:07:31;9.10;66.55
70676;DHT22;59069;52.242;20.900;2023-10-19T08:09:57;9.11;66.37
70676;DHT22;59069;52.242;20.900;2023-10-19T08:12:25;9.14;66.12
70676;DHT22;59069;52.242;20.900;2023-10-19T08:14:52;9.16;65.92
70676;DHT22;59069;52.242;20.900;2023-10-19T08:17:17;9.21;65.91
70676;DHT22;59069;52.242;20.900;2023-10-19T08:19:43;9.28;66.13
70676;DHT22;59069;52.242;20.900;2023-10-19T08:22:08;9.37;65.87
70676;DHT22;59069;52.242;20.900;2023-10-19T08:24:34;9.45;65.52
70676;DHT22;59069;52.242;20.900;2023-10-19T08:27:03;9.51;65.34
70676;DHT22;59069;52.242;20.900;2023-10-19T08:29:31;9.61;65.03
70676;DHT22;59069;52.242;20.900;2023-10-19T08:31:57;9.68;64.69
70676;DHT22;59069;52.242;20.900;2023-10-19T08:34:24;9.67;64.01
70676;DHT22;59069;52.242;20.900;2023-10-19T08:36:50;9.69;64.00
70676;DHT22;59069;52.242;20.900;2023-10-19T08:39:17;9.71;63.98
70676;DHT22;59069;52.242;20.900;2023-10-19T08:41:43;9.72;63.93
70676;DHT22;59069;52.242;20.900;2023-10-19T08:44:08;9.77;63.87
70676;DHT22;59069;52.242;20.900;2023-10-19T08:46:40;9.78;63.75
70676;DHT22;59069;52.242;20.900;2023-10-19T08:49:12;9.82;63.48
70676;DHT22;59069;52.242;20.900;2023-10-19T08:51:38;9.88;63.34
70676;DHT22;59069;52.242;20.900;2023-10-19T08:54:04;9.99;63.11
70676;DHT22;59069;52.242;20.900;2023-10-19T08:56:31;10.02;62.69
70676;DHT22;59069;52.242;20.900;2023-10-19T08:58:59;10.06;62.57
70676;DHT22;59069;52.242;20.900;2023-10-19T09:01:27;10.05;62.27
70676;DHT22;59069;52.242;20.900;2023-10-19T09:03:53;10.06;62.18
70676;DHT22;59069;52.242;20.900;2023-10-19T09:06:20;10.05;62.18
70676;DHT22;59069;52.242;20.900;2023-10-19T09:08:47;10.02;62.12
70676;DHT22;59069;52.242;20.900;2023-10-19T09:11:14;10.06;61.95
70676;DHT22;59069;52.242;20.900;2023-10-19T09:16:10;10.24;62.33
70676;DHT22;59069;52.242;20.900;2023-10-19T09:18:35;10.33;62.06
70676;DHT22;59069;52.242;20.900;2023-10-19T09:21:00;10.46;61.94
70676;DHT22;59069;52.242;20.900;2023-10-19T09:23:33;10.59;61.60
70676;DHT22;59069;52.242;20.900;2023-10-19T09:26:00;10.65;61.05
70676;DHT22;59069;52.242;20.900;2023-10-19T09:28:29;10.75;61.06
70676;DHT22;59069;52.242;20.900;2023-10-19T09:30:55;10.81;60.23
70676;DHT22;59069;52.242;20.900;2023-10-19T09:33:22;10.85;59.99
70676;DHT22;59069;52.242;20.900;2023-10-19T09:35:50;10.97;60.02
70676;DHT22;59069;52.242;20.900;2023-10-19T09:38:21;11.00;59.59
70676;DHT22;59069;52.242;20.900;2023-10-19T09:40:54;11.12;59.10
70676;DHT22;59069;52.242;20.900;2023-10-19T09:43:44;11.21;59.31
70676;DHT22;59069;52.242;20.900;2023-10-19T09:46:11;11.22;58.36
70676;DHT22;59069;52.242;20.900;2023-10-19T09:48:42;11.23;58.07
70676;DHT22;59069;52.242;20.900;2023-10-19T09:51:08;11.36;59.72
70676;DHT22;59069;52.242;20.900;2023-10-19T09:53:36;11.50;58.44
70676;DHT22;59069;52.242;20.900;2023-10-19T09:56:03;11.62;58.52
70676;DHT22;59069;52.242;20.900;2023-10-19T09:58:36;11.76;58.52
70676;DHT22;59069;52.242;20.900;2023-10-19T10:01:03;12.03;59.44
70676;DHT22;59069;52.242;20.900;2023-10-19T10:03:50;12.18;56.98
70676;DHT22;59069;52.242;20.900;2023-10-19T10:06:56;12.23;54.98
70676;DHT22;59069;52.242;20.900;2023-10-19T10:09:19;12.20;54.25
70676;DHT22;59069;52.242;20.900;2023-10-19T10:12:18;12.03;54.09
70676;DHT22;59069;52.242;20.900;2023-10-19T10:17:21;11.90;54.28
70676;DHT22;59069;52.242;20.900;2023-10-19T10:19:48;11.82;54.47
70676;DHT22;59069;52.242;20.900;2023-10-19T10:22:13;11.73;54.60
70676;DHT22;59069;52.242;20.900;2023-10-19T10:24:46;11.63;54.82
70676;DHT22;59069;52.242;20.900;2023-10-19T10:27:11;11.55;55.07
70676;DHT22;59069;52.242;20.900;2023-10-19T10:29:56;11.46;55.51
70676;DHT22;59069;52.242;20.900;2023-10-19T10:32:44;11.44;55.76
70676;DHT22;59069;52.242;20.900;2023-10-19T10:35:10;11.46;55.90
70676;DHT22;59069;52.242;20.900;2023-10-19T10:37:38;11.49;55.90
70676;DHT22;59069;52.242;20.900;2023-10-19T10:40:05;11.52;55.94
70676;DHT22;59069;52.242;20.900;2023-10-19T10:42:31;11.58;55.94
70676;DHT22;59069;52.242;20.900;2023-10-19T10:44:56;11.63;56.00
70676;DHT22;59069;52.242;20.900;2023-10-19T10:47:23;11.73;56.23
70676;DHT22;59069;52.242;20.900;2023-10-19T10:50:01;11.76;56.09
70676;DHT22;59069;52.242;20.900;2023-10-19T10:52:28;11.76;55.79
70676;DHT22;59069;52.242;20.900;2023-10-19T10:54:55;11.73;55.32
70676;DHT22;59069;52.242;20.900;2023-10-19T10:57:21;11.67;54.96
70676;DHT22;59069;52.242;20.900;2023-10-19T10:59:46;11.62;55.03
70676;DHT22;59069;52.242;20.900;2023-10-19T11:02:18;11.59;55.20
70676;DHT22;59069;52.242;20.900;2023-10-19T11:04:45;11.59;55.30
70676;DHT22;59069;52.242;20.900;2023-10-19T11:07:17;11.58;55.56
70676;DHT22;59069;52.242;20.900;2023-10-19T11:09:44;11.62;55.77
70676;DHT22;59069;52.242;20.900;2023-10-19T11:12:11;11.63;55.79
70676;DHT22;59069;52.242;20.900;2023-10-19T11:14:37;11.67;55.88
70676;DHT22;59069;52.242;20.900;2023-10-19T11:17:12;11.72;56.06
70676;DHT22;59069;52.242;20.900;2023-10-19T11:19:40;11.74;56.03
70676;DHT22;59069;52.242;20.900;2023-10-19T11:22:09;11.80;56.04
70676;DHT22;59069;52.242;20.900;2023-10-19T11:24:35;11.82;55.88
70676;DHT22;59069;52.242;20.900;2023-10-19T11:27:08;11.82;55.50
70676;DHT22;59069;52.242;20.900;2023-10-19T11:29:35;11.76;55.31
70676;DHT22;59069;52.242;20.900;2023-10-19T11:32:00;11.73;55.42
70676;DHT22;59069;52.242;20.900;2023-10-19T11:34:28;11.76;55.55
70676;DHT22;59069;52.242;20.900;2023-10-19T11:36:56;11.82;55.71
70676;DHT22;59069;52.242;20.900;2023-10-19T11:39:22;11.79;55.70
70676;DHT22;59069;52.242;20.900;2023-10-19T11:41:49;11.79;55.56
70676;DHT22;59069;52.242;20.900;2023-10-19T11:44:14;11.76;55.49
70676;DHT22;59069;52.242;20.900;2023-10-19T11:46:40;11.72;55.37
70676;DHT22;59069;52.242;20.900;2023-10-19T11:49:05;11.67;55.40
70676;DHT22;59069;52.242;20.900;2023-10-19T11:51:31;11.63;55.34
70676;DHT22;59069;52.242;20.900;2023-10-19T11:53:56;11.62;55.40
70676;DHT22;59069;52.242;20.900;2023-10-19T11:56:22;11.62;55.52
70676;DHT22;59069;52.242;20.900;2023-10-19T11:58:50;11.58;55.64
70676;DHT22;59069;52.242;20.900;2023-10-19T12:01:16;11.56;55.83
70676;DHT22;59069;52.242;20.900;2023-10-19T12:03:44;11.58;56.02
70676;DHT22;59069;52.242;20.900;2023-10-19T12:06:13;11.58;56.15
70676;DHT22;59069;52.242;20.900;2023-10-19T12:08:44;11.55;55.94
70676;DHT22;59069;52.242;20.900;2023-10-19T12:11:09;11.53;55.93
70676;DHT22;59069;52.242;20.900;2023-10-19T12:13:42;11.56;56.04
70676;DHT22;59069;52.242;20.900;2023-10-19T12:16:14;11.58;55.98
70676;DHT22;59069;52.242;20.900;2023-10-19T12:18:44;11.56;55.95
70676;DHT22;59069;52.242;20.900;2023-10-19T12:21:09;11.62;55.89
70676;DHT22;59069;52.242;20.900;2023-10-19T12:23:44;11.62;55.80
70676;DHT22;59069;52.242;20.900;2023-10-19T12:26:10;11.65;55.72
70676;DHT22;59069;52.242;20.900;2023-10-19T12:28:40;11.63;55.65
70676;DHT22;59069;52.242;20.900;2023-10-19T12:31:07;11.58;55.67
70676;DHT22;59069;52.242;20.900;2023-10-19T12:33:36;11.55;55.82
70676;DHT22;59069;52.242;20.900;2023-10-19T12:36:03;11.55;55.90
70676;DHT22;59069;52.242;20.900;2023-10-19T12:38:48;11.52;55.94
70676;DHT22;59069;52.242;20.900;2023-10-19T12:41:14;11.50;56.02
70676;DHT22;59069;52.242;20.900;2023-10-19T12:43:40;11.49;56.05
70676;DHT22;59069;52.242;20.900;2023-10-19T12:46:05;11.46;56.17
70676;DHT22;59069;52.242;20.900;2023-10-19T12:48:34;11.42;56.32
70676;DHT22;59069;52.242;20.900;2023-10-19T12:51:09;11.39;56.43
70676;DHT22;59069;52.242;20.900;2023-10-19T12:53:39;11.38;56.64
70676;DHT22;59069;52.242;20.900;2023-10-19T12:56:05;11.35;56.82
70676;DHT22;59069;52.242;20.900;2023-10-19T12:58:31;11.32;56.94
70676;DHT22;59069;52.242;20.900;2023-10-19T13:00:57;11.35;57.11
70676;DHT22;59069;52.242;20.900;2023-10-19T13:03:24;11.31;57.16
70676;DHT22;59069;52.242;20.900;2023-10-19T13:05:53;11.28;57.21
70676;DHT22;59069;52.242;20.900;2023-10-19T13:08:18;11.25;57.38
70676;DHT22;59069;52.242;20.900;2023-10-19T13:10:47;11.21;57.58
70676;DHT22;59069;52.242;20.900;2023-10-19T13:13:14;11.16;57.85
70676;DHT22;59069;52.242;20.900;2023-10-19T13:15:44;11.15;57.99
70676;DHT22;59069;52.242;20.900;2023-10-19T13:18:11;11.14;58.07
70676;DHT22;59069;52.242;20.900;2023-10-19T13:20:47;11.12;58.20
70676;DHT22;59069;52.242;20.900;2023-10-19T13:23:14;11.15;58.29
70676;DHT22;59069;52.242;20.900;2023-10-19T13:25:44;11.12;58.41
70676;DHT22;59069;52.242;20.900;2023-10-19T13:28:22;11.14;58.47
70676;DHT22;59069;52.242;20.900;2023-10-19T13:30:49;11.12;58.60
70676;DHT22;59069;52.242;20.900;2023-10-19T13:33:17;11.12;58.52
70676;DHT22;59069;52.242;20.900;2023-10-19T13:35:44;11.12;58.67
70676;DHT22;59069;52.242;20.900;2023-10-19T13:38:10;11.11;58.80
70676;DHT22;59069;52.242;20.900;2023-10-19T13:40:37;11.08;58.96
70676;DHT22;59069;52.242;20.900;2023-10-19T13:43:05;11.11;59.10
70676;DHT22;59069;52.242;20.900;2023-10-19T13:45:35;11.09;59.20
70676;DHT22;59069;52.242;20.900;2023-10-19T13:48:02;11.08;59.27
70676;DHT22;59069;52.242;20.900;2023-10-19T13:50:28;11.11;59.26
70676;DHT22;59069;52.242;20.900;2023-10-19T13:52:55;11.12;59.23
70676;DHT22;59069;52.242;20.900;2023-10-19T13:55:24;11.12;59.24
70676;DHT22;59069;52.242;20.900;2023-10-19T13:57:49;11.12;59.35
70676;DHT22;59069;52.242;20.900;2023-10-19T14:00:16;11.09;59.33
70676;DHT22;59069;52.242;20.900;2023-10-19T14:02:50;11.11;59.14
70676;DHT22;59069;52.242;20.900;2023-10-19T14:05:15;11.07;59.08
70676;DHT22;59069;52.242;20.900;2023-10-19T14:07:41;11.07;59.06
70676;DHT22;59069;52.242;20.900;2023-10-19T14:10:08;11.07;59.13
70676;DHT22;59069;52.242;20.900;2023-10-19T14:12:37;11.07;59.21
70676;DHT22;59069;52.242;20.900;2023-10-19T14:15:02;11.02;59.27
70676;DHT22;59069;52.242;20.900;2023-10-19T14:17:28;11.05;59.27
70676;DHT22;59069;52.242;20.900;2023-10-19T14:19:53;11.02;59.22
70676;DHT22;59069;52.242;20.900;2023-10-19T14:22:19;11.02;59.31
70676;DHT22;59069;52.242;20.900;2023-10-19T14:24:44;10.98;59.40
70676;DHT22;59069;52.242;20.900;2023-10-19T14:27:10;11.00;59.50
70676;DHT22;59069;52.242;20.900;2023-10-19T14:29:35;10.95;59.70
70676;DHT22;59069;52.242;20.900;2023-10-19T14:32:01;10.97;59.74
70676;DHT22;59069;52.242;20.900;2023-10-19T14:34:28;10.94;59.83
70676;DHT22;59069;52.242;20.900;2023-10-19T14:36:53;10.95;60.13
70676;DHT22;59069;52.242;20.900;2023-10-19T14:39:19;10.92;60.20
70676;DHT22;59069;52.242;20.900;2023-10-19T14:41:45;10.91;60.24
70676;DHT22;59069;52.242;20.900;2023-10-19T14:44:11;10.91;60.33
70676;DHT22;59069;52.242;20.900;2023-10-19T14:46:36;10.88;60.35
70676;DHT22;59069;52.242;20.900;2023-10-19T14:49:02;10.82;60.43
70676;DHT22;59069;52.242;20.900;2023-10-19T14:51:27;10.81;60.57
70676;DHT22;59069;52.242;20.900;2023-10-19T14:53:52;10.81;60.69
70676;DHT22;59069;52.242;20.900;2023-10-19T14:56:18;10.78;60.62
70676;DHT22;59069;52.242;20.900;2023-10-19T14:58:44;10.72;60.69
70676;DHT22;59069;52.242;20.900;2023-10-19T15:01:09;10.72;60.78
70676;DHT22;59069;52.242;20.900;2023-10-19T15:03:42;10.72;60.87
70676;DHT22;59069;52.242;20.900;2023-10-19T15:06:07;10.70;60.92
70676;DHT22;59069;52.242;20.900;2023-10-19T15:08:33;10.68;60.99
70676;DHT22;59069;52.242;20.900;2023-10-19T15:10:58;10.67;61.05
70676;DHT22;59069;52.242;20.900;2023-10-19T15:13:24;10.70;61.19
70676;DHT22;59069;52.242;20.900;2023-10-19T15:15:51;10.67;61.37
70676;DHT22;59069;52.242;20.900;2023-10-19T15:18:16;10.64;61.38
70676;DHT22;59069;52.242;20.900;2023-10-19T15:20:43;10.63;61.56
70676;DHT22;59069;52.242;20.900;2023-10-19T15:23:08;10.59;61.62
70676;DHT22;59069;52.242;20.900;2023-10-19T15:25:36;10.60;61.56
70676;DHT22;59069;52.242;20.900;2023-10-19T15:28:02;10.57;61.66
70676;DHT22;59069;52.242;20.900;2023-10-19T15:30:27;10.57;61.75
70676;DHT22;59069;52.242;20.900;2023-10-19T15:32:53;10.56;61.85
70676;DHT22;59069;52.242;20.900;2023-10-19T15:35:19;10.53;61.86
70676;DHT22;59069;52.242;20.900;2023-10-19T15:37:49;10.51;61.76
70676;DHT22;59069;52.242;20.900;2023-10-19T15:40:16;10.49;61.76
70676;DHT22;59069;52.242;20.900;2023-10-19T15:42:42;10.49;61.85